Time;durP1;ratioP1;P1;durP2;ratioP2;P2;SDS_P1;SDS_P2;PMS_P1;PMS_P2;Temp;Humidity;BMP_temperature;BMP_pressure;BME280_temperature;BME280_humidity;BME280_pressure;Samples;Min_cycle;Max_cycle;Signal;HPM_P1;HPM_P2
2022/04/30 00:02:23;;;;;;;8.40;6.67;;;16.20;59.50;;;;;;5004739;28;20484;-65
2022/04/30 00:04:51;;;;;;;7.10;6.40;;;16.10;59.40;;;;;;5013095;28;20985;-65
2022/04/30 00:07:20;;;;;;;7.07;6.33;;;16.10;59.40;;;;;;5009112;28;20468;-65
2022/04/30 00:09:48;;;;;;;7.03;6.40;;;16.10;59.20;;;;;;5005778;28;20463;-65
2022/04/30 00:12:16;;;;;;;8.40;6.40;;;16.00;59.00;;;;;;5008541;28;20488;-65
2022/04/30 00:14:44;;;;;;;6.57;5.77;;;16.00;59.20;;;;;;5009675;28;20468;-64
2022/04/30 00:17:11;;;;;;;7.03;6.33;;;16.00;59.10;;;;;;5010205;28;20566;-65
2022/04/30 00:19:38;;;;;;;7.00;6.30;;;16.00;59.50;;;;;;5009771;28;20465;-64
2022/04/30 00:22:07;;;;;;;7.03;6.33;;;16.00;59.00;;;;;;5010675;28;20465;-65
2022/04/30 00:24:34;;;;;;;8.00;7.20;;;15.90;59.00;;;;;;5008361;28;20480;-64
2022/04/30 00:27:01;;;;;;;9.43;8.43;;;15.90;59.20;;;;;;5004000;28;20556;-64
2022/04/30 00:29:29;;;;;;;10.73;9.60;;;15.90;59.60;;;;;;5014192;28;20815;-64
2022/04/30 00:31:56;;;;;;;9.57;8.60;;;15.90;60.00;;;;;;5015091;28;20998;-62
2022/04/30 00:34:23;;;;;;;14.17;10.93;;;15.80;60.50;;;;;;5006787;28;20476;-62
2022/04/30 00:36:50;;;;;;;12.63;9.50;;;15.80;61.00;;;;;;5014481;28;20468;-63
2022/04/30 00:39:18;;;;;;;11.73;10.37;;;15.80;61.30;;;;;;5015175;28;20960;-63
2022/04/30 00:41:46;;;;;;;11.80;10.80;;;15.70;62.00;;;;;;5014455;28;20488;-62
2022/04/30 00:44:18;;;;;;;12.43;10.83;;;15.70;62.60;;;;;;5015280;28;20473;-63
2022/04/30 00:46:45;;;;;;;11.50;10.30;;;15.70;63.00;;;;;;5009268;28;20465;-63
2022/04/30 00:49:12;;;;;;;12.83;10.83;;;15.60;63.50;;;;;;5015008;28;20469;-63
2022/04/30 00:51:40;;;;;;;13.80;12.00;;;15.50;64.00;;;;;;5013505;28;20473;-63
2022/04/30 00:54:09;;;;;;;12.97;11.43;;;15.50;64.50;;;;;;5012765;28;20806;-62
2022/04/30 00:56:43;;;;;;;12.27;10.97;;;15.40;65.00;;;;;;5008538;28;20476;-63
2022/04/30 00:59:16;;;;;;;14.33;11.17;;;15.40;65.20;;;;;;5012584;28;20544;-63
2022/04/30 01:01:44;;;;;;;12.53;11.30;;;15.40;65.30;;;;;;5012147;28;20501;-63
2022/04/30 01:04:11;;;;;;;11.13;10.03;;;15.30;65.60;;;;;;5012320;28;20986;-62
2022/04/30 01:06:49;;;;;;;10.65;9.60;;;15.20;65.50;;;;;;5011908;28;20484;-62
2022/04/30 01:09:17;;;;;;;11.80;9.35;;;15.20;65.40;;;;;;5013968;28;20288;-63
2022/04/30 01:11:47;;;;;;;10.38;9.38;;;15.20;65.60;;;;;;5013093;28;20230;-63
2022/04/30 01:14:14;;;;;;;9.93;9.03;;;15.10;65.40;;;;;;5013585;28;20222;-63
2022/04/30 01:16:43;;;;;;;10.80;8.05;;;15.10;65.30;;;;;;5014029;28;20479;-64
2022/04/30 01:19:18;;;;;;;14.60;10.47;;;15.10;65.40;;;;;;5014471;28;20245;-63
2022/04/30 01:21:50;;;;;;;11.07;9.30;;;15.00;65.60;;;;;;5006696;28;20527;-63
2022/04/30 01:24:24;;;;;;;10.27;9.05;;;15.00;65.70;;;;;;5012457;28;20230;-63
2022/04/30 01:26:53;;;;;;;13.80;10.88;;;14.90;65.80;;;;;;5008811;28;20229;-63
2022/04/30 01:29:21;;;;;;;11.80;8.73;;;14.90;66.00;;;;;;5014518;28;20233;-63
2022/04/30 01:37:24;;;;;;;8.52;7.50;;;14.80;65.30;;;;;;5001986;28;20343;-63
2022/04/30 01:39:56;;;;;;;9.68;6.97;;;14.80;65.20;;;;;;5013498;28;20538;-63
2022/04/30 01:42:23;;;;;;;9.13;7.17;;;14.80;65.00;;;;;;5014027;28;20688;-63
2022/04/30 01:44:51;;;;;;;8.07;6.53;;;14.80;65.00;;;;;;5013480;28;20477;-63
2022/04/30 01:47:19;;;;;;;9.07;7.18;;;14.80;65.00;;;;;;5013712;28;20223;-63
2022/04/30 01:49:46;;;;;;;10.10;7.95;;;14.80;65.00;;;;;;5013330;28;20221;-63
2022/04/30 01:52:13;;;;;;;7.90;7.00;;;14.70;65.00;;;;;;5013703;28;20229;-63
2022/04/30 01:54:40;;;;;;;8.27;7.45;;;14.70;65.30;;;;;;5003435;28;20233;-62
2022/04/30 01:57:08;;;;;;;9.10;6.95;;;14.70;65.30;;;;;;5011707;28;20546;-63
2022/04/30 01:59:36;;;;;;;9.95;8.88;;;14.70;65.00;;;;;;5013252;28;20222;-64
2022/04/30 02:02:03;;;;;;;12.43;9.70;;;14.60;65.20;;;;;;5013438;28;20237;-63
2022/04/30 02:04:32;;;;;;;10.82;9.73;;;14.60;65.20;;;;;;5013644;28;20681;-63
2022/04/30 02:07:01;;;;;;;9.27;8.38;;;14.60;65.20;;;;;;5013134;28;20226;-62
2022/04/30 02:09:29;;;;;;;12.20;7.70;;;14.50;65.20;;;;;;5000452;28;20688;-63
2022/04/30 02:11:59;;;;;;;9.32;6.40;;;14.50;65.20;;;;;;5012534;28;20238;-63
2022/04/30 02:14:29;;;;;;;7.45;6.45;;;14.50;65.00;;;;;;5013363;28;20226;-63
2022/04/30 02:16:56;;;;;;;7.07;5.65;;;14.50;65.00;;;;;;5012915;28;20288;-64
2022/04/30 02:19:27;;;;;;;9.88;7.20;;;14.50;65.00;;;;;;5013388;28;20232;-63
2022/04/30 02:21:57;;;;;;;7.45;6.60;;;14.40;65.20;;;;;;5008605;28;20241;-62
2022/04/30 02:24:27;;;;;;;7.20;5.80;;;14.40;65.30;;;;;;5013318;28;20256;-62
2022/04/30 02:26:54;;;;;;;7.10;6.40;;;14.40;65.50;;;;;;5012494;28;20747;-62
2022/04/30 02:29:20;;;;;;;6.80;5.03;;;14.40;65.60;;;;;;5012945;28;20260;-63
2022/04/30 02:31:49;;;;;;;10.32;6.47;;;14.40;65.60;;;;;;5012404;28;20230;-63
2022/04/30 02:34:16;;;;;;;8.32;6.43;;;14.40;65.60;;;;;;5006931;28;20226;-62
2022/04/30 02:36:42;;;;;;;9.00;5.57;;;14.30;66.10;;;;;;5012514;28;20222;-62
2022/04/30 02:39:09;;;;;;;9.27;6.60;;;14.30;66.50;;;;;;5012507;28;20229;-62
2022/04/30 02:41:36;;;;;;;7.68;6.65;;;14.20;66.50;;;;;;5011720;28;20237;-63
2022/04/30 02:44:04;;;;;;;7.80;6.10;;;14.20;66.70;;;;;;5011863;28;20581;-62
2022/04/30 02:46:31;;;;;;;7.72;6.03;;;14.20;66.70;;;;;;5011772;28;20458;-63
2022/04/30 02:48:59;;;;;;;6.30;5.70;;;14.10;66.50;;;;;;5011501;28;20584;-64
2022/04/30 02:51:26;;;;;;;8.70;6.18;;;14.10;66.50;;;;;;5012158;28;20703;-62
2022/04/30 02:53:54;;;;;;;6.50;5.53;;;14.00;66.10;;;;;;5008285;28;20229;-62
2022/04/30 02:56:21;;;;;;;6.95;6.35;;;14.00;66.10;;;;;;5009804;28;20687;-62
2022/04/30 03:01:33;;;;;;;9.68;6.03;;;13.90;66.10;;;;;;5007402;28;20237;-64
2022/04/30 03:04:02;;;;;;;8.80;6.18;;;13.90;66.40;;;;;;5012324;28;20241;-64
2022/04/30 03:06:29;;;;;;;6.90;5.95;;;13.90;66.70;;;;;;5012888;28;20225;-64
2022/04/30 03:08:56;;;;;;;5.85;5.18;;;13.80;66.70;;;;;;5012125;28;20230;-64
2022/04/30 03:11:23;;;;;;;6.05;5.18;;;13.80;66.50;;;;;;5012594;28;20288;-64
2022/04/30 03:13:50;;;;;;;6.40;5.85;;;13.80;66.40;;;;;;5012009;28;20563;-64
2022/04/30 03:21:47;;;;;;;6.90;5.03;;;13.70;66.10;;;;;;5012010;28;20237;-63
2022/04/30 03:24:16;;;;;;;7.63;6.38;;;13.70;66.10;;;;;;5011815;28;20233;-63
2022/04/30 03:26:44;;;;;;;6.20;5.60;;;13.70;66.20;;;;;;5010918;28;20226;-63
2022/04/30 03:29:11;;;;;;;5.30;4.85;;;13.60;65.70;;;;;;5012691;28;20288;-62
2022/04/30 03:31:39;;;;;;;5.93;4.60;;;13.60;65.60;;;;;;5012066;28;20747;-63
2022/04/30 03:34:08;;;;;;;8.55;5.53;;;13.70;65.60;;;;;;5008291;28;20718;-62
2022/04/30 03:36:35;;;;;;;6.03;4.40;;;13.70;65.50;;;;;;5011915;28;20230;-63
2022/04/30 03:39:02;;;;;;;5.55;4.70;;;13.60;65.10;;;;;;5014008;28;21734;-62
2022/04/30 03:41:29;;;;;;;7.18;5.00;;;13.70;65.20;;;;;;5015534;28;21001;-62
2022/04/30 03:43:56;;;;;;;6.97;5.70;;;13.60;65.00;;;;;;5015199;28;20229;-63
2022/04/30 03:46:22;;;;;;;6.30;5.68;;;13.60;65.00;;;;;;5016375;28;20226;-63
2022/04/30 03:48:53;;;;;;;7.47;5.30;;;13.60;65.10;;;;;;5016011;28;20222;-63
2022/04/30 03:51:21;;;;;;;5.10;4.55;;;13.60;65.20;;;;;;5016248;28;20696;-63
2022/04/30 03:53:49;;;;;;;7.60;5.60;;;13.60;65.30;;;;;;5015905;28;20226;-63
2022/04/30 03:56:17;;;;;;;5.18;4.78;;;13.60;65.50;;;;;;5015874;28;20236;-63
2022/04/30 03:58:46;;;;;;;6.30;5.70;;;13.60;65.90;;;;;;5015575;28;20218;-63
2022/04/30 04:01:13;;;;;;;12.35;5.80;;;13.60;66.00;;;;;;5016048;28;20230;-63
2022/04/30 04:03:40;;;;;;;7.78;5.45;;;13.60;66.40;;;;;;5016153;28;20225;-63
2022/04/30 04:06:07;;;;;;;6.93;5.97;;;13.60;66.70;;;;;;5015554;28;20221;-64
2022/04/30 04:08:35;;;;;;;6.22;5.63;;;13.60;66.70;;;;;;5011973;28;20222;-63
2022/04/30 04:11:02;;;;;;;6.35;5.85;;;13.60;66.70;;;;;;4995857;28;20701;-63
2022/04/30 04:18:58;;;;;;;6.18;5.68;;;13.60;67.30;;;;;;5015804;28;20715;-64
2022/04/30 04:21:24;;;;;;;8.20;6.45;;;13.60;67.50;;;;;;5016087;28;20233;-64
2022/04/30 04:26:37;;;;;;;6.72;6.10;;;13.50;68.00;;;;;;5016150;28;20241;-63
2022/04/30 04:29:04;;;;;;;6.07;5.47;;;13.50;68.20;;;;;;5015638;28;20712;-63
2022/04/30 04:31:30;;;;;;;9.00;5.30;;;13.50;68.20;;;;;;5015982;28;20229;-64
2022/04/30 04:33:57;;;;;;;7.32;6.25;;;13.50;67.90;;;;;;5015335;28;20237;-63
2022/04/30 04:36:24;;;;;;;7.15;6.45;;;13.60;68.10;;;;;;5015905;28;20233;-63
2022/04/30 04:38:52;;;;;;;6.57;5.88;;;13.50;68.20;;;;;;5015495;28;20226;-64
2022/04/30 04:41:19;;;;;;;8.23;7.15;;;13.50;68.30;;;;;;5015584;28;20226;-63
2022/04/30 04:43:46;;;;;;;7.47;6.85;;;13.50;68.50;;;;;;5015678;28;20664;-63
2022/04/30 04:46:15;;;;;;;7.57;6.85;;;13.50;68.70;;;;;;5015249;28;20236;-63
2022/04/30 04:48:42;;;;;;;6.15;5.47;;;13.40;68.60;;;;;;5015450;28;20567;-63
2022/04/30 04:51:08;;;;;;;7.70;5.78;;;13.40;68.80;;;;;;5015002;28;20225;-63
2022/04/30 04:53:36;;;;;;;10.82;7.68;;;13.40;69.00;;;;;;5015438;28;20229;-64
2022/04/30 04:56:06;;;;;;;7.93;6.20;;;13.40;69.00;;;;;;5014785;28;20238;-63
2022/04/30 04:58:33;;;;;;;7.93;5.70;;;13.50;69.00;;;;;;5015451;28;20238;-64
2022/04/30 05:01:00;;;;;;;9.18;6.25;;;13.50;68.90;;;;;;5015003;28;20233;-64
2022/04/30 05:03:26;;;;;;;6.50;5.78;;;13.50;68.70;;;;;;5015246;28;20222;-63
2022/04/30 05:05:53;;;;;;;5.93;5.32;;;13.50;68.60;;;;;;5014951;28;20244;-64
2022/04/30 05:08:20;;;;;;;6.75;5.85;;;13.50;68.70;;;;;;5015313;28;20241;-63
2022/04/30 05:10:47;;;;;;;9.98;6.53;;;13.50;68.60;;;;;;5015166;28;20218;-63
2022/04/30 05:13:15;;;;;;;8.93;6.63;;;13.50;68.70;;;;;;5014563;28;20237;-64
2022/04/30 05:15:43;;;;;;;7.47;6.20;;;13.50;69.10;;;;;;5015177;28;20226;-63
2022/04/30 05:18:09;;;;;;;8.52;6.43;;;13.60;69.40;;;;;;5014733;28;20390;-64
2022/04/30 05:20:36;;;;;;;9.38;6.10;;;13.60;69.50;;;;;;5015044;28;20245;-64
2022/04/30 05:23:03;;;;;;;9.80;5.25;;;13.60;69.80;;;;;;5014432;28;20305;-64
2022/04/30 05:25:30;;;;;;;9.55;6.03;;;13.60;70.00;;;;;;5014950;28;20222;-63
2022/04/30 05:27:57;;;;;;;11.10;6.38;;;13.60;70.00;;;;;;5014566;28;20268;-63
2022/04/30 05:30:26;;;;;;;8.32;7.53;;;13.60;70.10;;;;;;5014843;28;20288;-63
2022/04/30 05:32:52;;;;;;;5.85;5.35;;;13.60;70.20;;;;;;5014531;28;20230;-63
2022/04/30 05:35:20;;;;;;;6.50;5.90;;;13.60;70.80;;;;;;5014330;28;20679;-64
2022/04/30 05:37:46;;;;;;;7.00;6.15;;;13.60;70.90;;;;;;5014745;28;20222;-63
2022/04/30 05:40:13;;;;;;;6.85;6.20;;;13.60;70.90;;;;;;5014121;28;20320;-63
2022/04/30 05:42:40;;;;;;;6.72;6.03;;;13.60;71.20;;;;;;5014489;28;20684;-63
2022/04/30 05:45:08;;;;;;;7.65;6.22;;;13.60;71.40;;;;;;5014020;28;20252;-63
2022/04/30 05:47:36;;;;;;;9.95;6.43;;;13.60;71.60;;;;;;5014618;28;20588;-63
2022/04/30 05:50:04;;;;;;;7.00;6.30;;;13.60;72.10;;;;;;5013945;28;20736;-62
2022/04/30 05:52:33;;;;;;;8.90;6.32;;;13.60;72.40;;;;;;5009196;28;20230;-62
2022/04/30 05:55:01;;;;;;;6.90;5.60;;;13.70;72.10;;;;;;4994199;28;20230;-62
2022/04/30 05:57:28;;;;;;;7.60;6.30;;;13.60;72.10;;;;;;5004852;28;20288;-63
2022/04/30 05:59:55;;;;;;;5.70;4.50;;;13.60;71.80;;;;;;5014200;28;20218;-63
2022/04/30 06:02:22;;;;;;;6.72;4.97;;;13.60;71.70;;;;;;5013062;28;20232;-63
2022/04/30 06:04:51;;;;;;;5.85;5.22;;;13.70;72.50;;;;;;5014251;28;20244;-63
2022/04/30 06:07:18;;;;;;;6.50;5.15;;;13.70;71.50;;;;;;5013732;28;20234;-63
2022/04/30 06:09:45;;;;;;;5.82;4.45;;;13.70;71.30;;;;;;5014043;28;20225;-63
2022/04/30 06:12:12;;;;;;;4.80;4.30;;;13.70;71.30;;;;;;5013550;28;20309;-63
2022/04/30 06:14:38;;;;;;;5.38;4.30;;;13.70;71.40;;;;;;5000448;28;20215;-63
2022/04/30 06:17:05;;;;;;;4.43;4.03;;;13.80;71.30;;;;;;4994113;28;20567;-63
2022/04/30 06:19:32;;;;;;;6.97;4.88;;;13.80;71.00;;;;;;4994344;28;20674;-64
2022/04/30 06:22:00;;;;;;;5.40;3.90;;;13.80;70.70;;;;;;4993724;28;20245;-64
2022/04/30 06:24:27;;;;;;;8.43;4.40;;;13.90;71.00;;;;;;4994182;28;20222;-64
2022/04/30 06:26:54;;;;;;;5.53;3.97;;;13.90;70.60;;;;;;4994130;28;20223;-63
2022/04/30 06:29:22;;;;;;;6.70;3.40;;;14.00;70.60;;;;;;4993894;28;20222;-63
2022/04/30 06:31:50;;;;;;;4.60;4.05;;;14.00;70.70;;;;;;4993993;28;20234;-63
2022/04/30 06:34:16;;;;;;;6.60;5.30;;;14.10;70.60;;;;;;4993727;28;20289;-63
2022/04/30 06:36:43;;;;;;;4.20;3.55;;;14.10;70.60;;;;;;4993995;28;20226;-63
2022/04/30 06:39:11;;;;;;;4.40;4.00;;;14.20;70.50;;;;;;4993588;28;20227;-63
2022/04/30 06:41:38;;;;;;;4.55;4.10;;;14.20;70.50;;;;;;4993824;28;20227;-63
2022/04/30 06:44:05;;;;;;;7.15;5.35;;;14.20;70.40;;;;;;4993711;28;20230;-63
2022/04/30 06:46:32;;;;;;;4.45;3.70;;;14.20;70.10;;;;;;4993890;28;20227;-63
2022/04/30 06:48:59;;;;;;;6.03;4.68;;;14.20;70.20;;;;;;4993980;28;20222;-64
2022/04/30 06:51:26;;;;;;;5.30;3.47;;;14.20;70.30;;;;;;4993458;28;20230;-63
2022/04/30 06:59:23;;;;;;;7.18;4.35;;;14.40;70.40;;;;;;5002510;28;20753;-64
2022/04/30 07:01:57;;;;;;;8.73;5.35;;;14.40;70.40;;;;;;5013112;28;20280;-63
2022/04/30 07:04:24;;;;;;;4.53;4.07;;;14.40;70.00;;;;;;5012938;28;20234;-63
2022/04/30 07:06:52;;;;;;;4.45;4.05;;;14.50;70.20;;;;;;5013282;28;20233;-64
2022/04/30 07:09:18;;;;;;;5.20;3.95;;;14.50;70.10;;;;;;5013243;28;20288;-63
2022/04/30 07:11:47;;;;;;;5.47;3.70;;;14.50;69.90;;;;;;5013078;28;20226;-63
2022/04/30 07:14:14;;;;;;;5.90;4.22;;;14.60;70.00;;;;;;5017396;28;20234;-63
2022/04/30 07:16:42;;;;;;;11.10;4.07;;;14.70;69.80;;;;;;5016649;28;20233;-63
2022/04/30 07:19:09;;;;;;;5.40;4.40;;;14.80;69.80;;;;;;5017306;28;20222;-63
2022/04/30 07:21:35;;;;;;;4.10;3.70;;;14.90;69.80;;;;;;5016714;28;20495;-63
2022/04/30 07:24:02;;;;;;;6.90;3.93;;;15.00;69.50;;;;;;5017297;28;20465;-63
2022/04/30 07:26:29;;;;;;;5.30;3.70;;;15.00;68.90;;;;;;5016704;28;20464;-63
2022/04/30 07:28:57;;;;;;;6.28;3.78;;;15.00;67.60;;;;;;5017043;28;20469;-63
2022/04/30 07:31:24;;;;;;;9.33;5.13;;;15.10;66.60;;;;;;5017006;28;20229;-63
2022/04/30 07:33:51;;;;;;;5.50;4.00;;;15.10;66.30;;;;;;5016719;28;21332;-64
2022/04/30 07:36:18;;;;;;;4.77;4.10;;;15.10;66.40;;;;;;5016998;28;20849;-63
2022/04/30 07:38:45;;;;;;;3.93;3.50;;;15.20;66.50;;;;;;5016362;28;20465;-64
2022/04/30 07:41:12;;;;;;;5.43;3.70;;;15.30;66.10;;;;;;5016550;28;20472;-64
2022/04/30 07:43:39;;;;;;;5.80;4.03;;;15.30;66.10;;;;;;5016476;28;20780;-64
2022/04/30 07:46:07;;;;;;;3.67;3.37;;;15.30;65.90;;;;;;5016696;28;20492;-62
2022/04/30 07:48:34;;;;;;;5.07;4.40;;;15.40;66.10;;;;;;5016457;28;20481;-62
2022/04/30 07:51:01;;;;;;;5.80;4.50;;;15.40;66.00;;;;;;5016704;28;20831;-62
2022/04/30 07:53:28;;;;;;;4.30;3.90;;;15.50;66.20;;;;;;5016566;28;20475;-62
2022/04/30 07:55:55;;;;;;;4.87;4.13;;;15.60;66.90;;;;;;5016306;28;20815;-64
2022/04/30 07:58:22;;;;;;;4.70;4.30;;;15.60;67.30;;;;;;5016395;28;20469;-64
2022/04/30 08:00:49;;;;;;;6.73;3.90;;;15.60;67.50;;;;;;5015809;28;20472;-63
2022/04/30 08:03:17;;;;;;;4.60;3.50;;;15.70;67.50;;;;;;5016380;28;20476;-63
2022/04/30 08:05:44;;;;;;;4.53;3.97;;;15.80;67.10;;;;;;5016124;28;20473;-64
2022/04/30 08:08:11;;;;;;;6.00;3.70;;;15.90;66.30;;;;;;5016392;28;20469;-64
2022/04/30 08:10:37;;;;;;;4.27;3.90;;;15.90;66.40;;;;;;5015794;28;20480;-63
2022/04/30 08:13:06;;;;;;;5.87;5.23;;;15.90;66.70;;;;;;5016303;28;20811;-64
2022/04/30 08:15:33;;;;;;;5.20;4.03;;;16.00;66.90;;;;;;5016003;28;20469;-63
2022/04/30 08:18:00;;;;;;;4.97;4.10;;;16.10;66.60;;;;;;5016224;28;20469;-64
2022/04/30 08:20:28;;;;;;;5.27;3.90;;;16.10;66.60;;;;;;5016238;28;20972;-63
2022/04/30 08:22:55;;;;;;;8.70;5.00;;;16.10;66.50;;;;;;5015620;28;20461;-63
2022/04/30 08:25:21;;;;;;;11.00;4.87;;;16.20;66.10;;;;;;5015303;28;20464;-63
2022/04/30 08:27:48;;;;;;;5.93;4.40;;;16.30;65.00;;;;;;5015604;28;20469;-62
2022/04/30 08:30:15;;;;;;;6.27;4.50;;;16.30;64.60;;;;;;5016137;28;20470;-64
2022/04/30 08:32:42;;;;;;;4.17;3.80;;;16.40;64.30;;;;;;5015484;28;20963;-64
2022/04/30 08:35:09;;;;;;;6.70;3.70;;;16.50;63.70;;;;;;5015885;28;20498;-63
2022/04/30 08:37:37;;;;;;;3.97;3.57;;;16.50;63.80;;;;;;5015595;28;20473;-64
2022/04/30 08:40:05;;;;;;;3.30;3.03;;;16.50;64.20;;;;;;5015871;28;20461;-64
2022/04/30 08:42:32;;;;;;;8.83;4.13;;;16.60;64.40;;;;;;5015619;28;20465;-64
2022/04/30 08:44:59;;;;;;;5.50;4.73;;;16.70;64.20;;;;;;5015409;28;20584;-63
2022/04/30 08:47:28;;;;;;;4.77;3.50;;;16.70;64.30;;;;;;5015672;28;20476;-62
2022/04/30 08:49:56;;;;;;;3.20;2.90;;;16.70;64.50;;;;;;5015296;28;20858;-62
2022/04/30 08:52:24;;;;;;;5.90;3.97;;;16.80;64.50;;;;;;5015226;28;20479;-63
2022/04/30 08:54:52;;;;;;;8.83;5.10;;;16.80;63.90;;;;;;5014787;28;20565;-63
2022/04/30 08:57:20;;;;;;;7.93;4.30;;;16.90;63.90;;;;;;5015302;28;20483;-62
2022/04/30 08:59:47;;;;;;;3.90;3.60;;;16.90;63.60;;;;;;5014968;28;20461;-63
2022/04/30 09:02:14;;;;;;;3.87;3.57;;;16.90;63.60;;;;;;5015182;28;20480;-63
2022/04/30 09:04:44;;;;;;;4.20;3.40;;;16.90;63.70;;;;;;5014687;28;20473;-63
2022/04/30 09:07:15;;;;;;;5.00;3.83;;;17.00;63.90;;;;;;5015324;28;20564;-64
2022/04/30 09:09:42;;;;;;;4.77;4.30;;;17.00;63.70;;;;;;5014765;28;20473;-63
2022/04/30 09:12:12;;;;;;;4.03;3.73;;;17.10;63.90;;;;;;5015087;28;20471;-63
2022/04/30 09:14:41;;;;;;;5.37;4.47;;;17.10;62.90;;;;;;5014483;28;20480;-64
2022/04/30 09:17:09;;;;;;;4.53;3.80;;;17.10;63.00;;;;;;5015004;28;20474;-64
2022/04/30 09:19:53;;;;;;;3.93;3.10;;;17.10;63.20;;;;;;5014887;28;20481;-63
2022/04/30 09:22:30;;;;;;;6.47;4.03;;;17.20;62.90;;;;;;5014776;28;20471;-64
2022/04/30 09:24:58;;;;;;;4.53;3.70;;;17.20;62.80;;;;;;5015003;28;20996;-63
2022/04/30 09:27:26;;;;;;;4.10;3.80;;;17.30;62.50;;;;;;5014523;28;20477;-64
2022/04/30 09:29:53;;;;;;;3.83;3.30;;;17.30;61.80;;;;;;5014782;28;20484;-63
2022/04/30 09:32:22;;;;;;;4.20;3.80;;;17.30;61.50;;;;;;5014475;28;20549;-63
2022/04/30 09:37:43;;;;;;;6.00;3.87;;;17.40;63.00;;;;;;5013790;28;20549;-63
2022/04/30 09:40:20;;;;;;;4.43;4.03;;;17.50;62.30;;;;;;5014657;28;20476;-62
2022/04/30 09:42:49;;;;;;;4.03;3.37;;;17.50;62.20;;;;;;5014066;28;21250;-63
2022/04/30 09:45:30;;;;;;;4.60;3.30;;;17.60;62.20;;;;;;5014547;28;20472;-63
2022/04/30 09:47:59;;;;;;;3.43;3.13;;;17.60;62.20;;;;;;5014088;28;20466;-63
2022/04/30 09:56:00;;;;;;;3.97;3.67;;;17.80;61.50;;;;;;5014208;28;20494;-63
2022/04/30 09:58:29;;;;;;;7.17;4.07;;;17.90;61.60;;;;;;5014157;28;20467;-63
2022/04/30 10:00:58;;;;;;;4.33;3.93;;;17.90;60.70;;;;;;5013282;28;20489;-63
2022/04/30 10:03:28;;;;;;;5.93;4.30;;;18.00;61.00;;;;;;5014029;28;20808;-64
2022/04/30 10:06:00;;;;;;;3.60;3.20;;;18.10;61.30;;;;;;5013687;28;20530;-64
2022/04/30 10:08:29;;;;;;;4.57;3.60;;;18.10;61.50;;;;;;5014057;28;20457;-63
2022/04/30 10:11:10;;;;;;;4.70;4.00;;;18.10;61.70;;;;;;5013587;28;20484;-63
2022/04/30 10:13:53;;;;;;;3.90;3.30;;;18.10;61.70;;;;;;5013934;28;20496;-63
2022/04/30 10:16:25;;;;;;;3.27;3.00;;;18.20;61.30;;;;;;5013942;28;20476;-63
2022/04/30 10:19:10;;;;;;;6.50;4.10;;;18.30;60.30;;;;;;5013971;28;20491;-63
2022/04/30 10:21:38;;;;;;;3.83;3.10;;;18.30;59.60;;;;;;5013779;28;20486;-63
2022/04/30 10:24:06;;;;;;;5.63;4.47;;;18.40;59.70;;;;;;5013717;28;20468;-63
2022/04/30 10:26:33;;;;;;;4.03;3.73;;;18.50;59.70;;;;;;5013787;28;20506;-64
2022/04/30 10:29:10;;;;;;;8.30;4.13;;;18.50;59.80;;;;;;5013276;28;20472;-63
2022/04/30 10:31:44;;;;;;;5.83;3.93;;;18.60;59.80;;;;;;5013266;28;20535;-64
2022/04/30 10:34:11;;;;;;;5.67;4.13;;;18.70;59.40;;;;;;5013535;28;20531;-63
2022/04/30 10:36:39;;;;;;;4.73;3.63;;;18.70;59.20;;;;;;5013033;28;20962;-64
2022/04/30 10:39:09;;;;;;;6.00;5.20;;;18.70;58.60;;;;;;5013617;28;20461;-63
2022/04/30 10:41:42;;;;;;;7.90;5.77;;;18.70;58.40;;;;;;5013490;28;20527;-63
2022/04/30 10:44:12;;;;;;;4.93;4.00;;;18.70;58.50;;;;;;5013385;28;20480;-63
2022/04/30 10:46:42;;;;;;;6.20;4.20;;;18.80;58.40;;;;;;5013307;28;20472;-63
2022/04/30 10:49:09;;;;;;;4.47;4.07;;;18.80;58.50;;;;;;5013292;28;20457;-63
2022/04/30 10:51:40;;;;;;;4.73;3.73;;;18.80;58.60;;;;;;5013327;28;20481;-63
2022/04/30 10:54:13;;;;;;;6.30;4.10;;;18.90;58.20;;;;;;5013158;28;20471;-62
2022/04/30 10:56:41;;;;;;;5.10;3.97;;;18.70;58.10;;;;;;5013273;28;21039;-64
2022/04/30 10:59:10;;;;;;;4.40;3.80;;;18.80;58.30;;;;;;5012904;28;20464;-64
2022/04/30 11:01:37;;;;;;;4.47;4.07;;;18.70;58.30;;;;;;5013341;28;20820;-62
2022/04/30 11:04:04;;;;;;;5.10;3.80;;;18.80;58.70;;;;;;5012652;28;20820;-63
2022/04/30 11:06:33;;;;;;;5.07;4.63;;;18.80;58.90;;;;;;5013257;28;20480;-64
2022/04/30 11:09:02;;;;;;;8.63;4.80;;;18.80;59.10;;;;;;5012811;28;20978;-62
2022/04/30 11:11:29;;;;;;;5.13;4.17;;;18.90;59.10;;;;;;5013182;28;20480;-64
2022/04/30 11:14:07;;;;;;;5.70;4.37;;;18.90;58.40;;;;;;5012795;28;20480;-63
2022/04/30 11:16:37;;;;;;;5.57;5.00;;;19.00;58.50;;;;;;5013368;28;20476;-63
2022/04/30 11:19:08;;;;;;;7.63;4.90;;;19.10;58.40;;;;;;5012821;28;20516;-64
2022/04/30 11:21:36;;;;;;;4.17;3.53;;;19.20;58.30;;;;;;5013079;28;20477;-64
2022/04/30 11:27:25;;;;;;;3.80;3.47;;;19.40;57.10;;;;;;5007271;28;20471;-64
2022/04/30 11:29:53;;;;;;;3.10;2.80;;;19.50;56.70;;;;;;5012798;28;20476;-64
2022/04/30 11:32:23;;;;;;;5.83;3.43;;;19.50;56.40;;;;;;5012966;28;20483;-63
2022/04/30 11:34:50;;;;;;;3.80;3.13;;;19.60;55.90;;;;;;5012591;28;20464;-63
2022/04/30 11:37:17;;;;;;;4.03;3.33;;;19.60;55.90;;;;;;5013027;28;20491;-64
2022/04/30 11:39:43;;;;;;;3.67;3.03;;;19.70;55.80;;;;;;5012654;28;20465;-64
2022/04/30 11:42:10;;;;;;;5.97;3.93;;;19.80;55.40;;;;;;5012823;28;20461;-63
2022/04/30 11:44:37;;;;;;;10.73;5.00;;;19.80;54.30;;;;;;5012407;28;20473;-63
2022/04/30 11:47:07;;;;;;;4.47;4.07;;;19.80;53.70;;;;;;5012792;28;20465;-63
2022/04/30 11:49:36;;;;;;;5.20;3.37;;;19.90;54.30;;;;;;5012739;28;20480;-63
2022/04/30 11:52:04;;;;;;;4.73;3.40;;;19.90;54.70;;;;;;5012819;28;20804;-63
2022/04/30 11:54:31;;;;;;;4.70;3.47;;;20.00;55.30;;;;;;5012723;28;20476;-63
2022/04/30 11:56:59;;;;;;;6.03;4.30;;;20.00;55.30;;;;;;5012489;28;20478;-63
2022/04/30 11:59:30;;;;;;;6.90;3.80;;;20.00;55.10;;;;;;5014174;28;20781;-64
2022/04/30 12:02:01;;;;;;;3.80;3.50;;;20.00;55.70;;;;;;5016134;28;20465;-64
2022/04/30 12:04:33;;;;;;;4.97;3.50;;;20.00;56.10;;;;;;5016274;28;20469;-64
2022/04/30 12:07:03;;;;;;;5.67;3.57;;;20.00;56.10;;;;;;5015924;28;20462;-63
2022/04/30 12:09:31;;;;;;;4.00;3.40;;;19.90;55.80;;;;;;5016275;28;20974;-63
2022/04/30 12:11:59;;;;;;;3.53;3.33;;;20.00;55.20;;;;;;5015655;28;20456;-64
2022/04/30 12:14:26;;;;;;;3.63;3.27;;;20.00;55.20;;;;;;5016190;28;20476;-64
2022/04/30 12:16:54;;;;;;;3.53;3.20;;;20.00;54.80;;;;;;5015638;28;20986;-64
2022/04/30 12:25:06;;;;;;;4.10;3.70;;;20.00;54.20;;;;;;5015800;28;20476;-62
2022/04/30 12:27:33;;;;;;;4.00;3.60;;;20.10;54.30;;;;;;5015844;28;20464;-63
2022/04/30 12:30:02;;;;;;;4.97;4.10;;;20.10;54.20;;;;;;5015401;28;20511;-63
2022/04/30 12:32:29;;;;;;;4.47;3.40;;;20.20;53.80;;;;;;5015995;28;20468;-62
2022/04/30 12:34:57;;;;;;;5.50;3.87;;;20.20;53.20;;;;;;5015229;28;20556;-63
2022/04/30 12:37:32;;;;;;;4.30;3.90;;;20.30;53.10;;;;;;5015736;28;20530;-63
2022/04/30 12:39:59;;;;;;;4.17;3.67;;;20.30;53.10;;;;;;5015474;28;20536;-63
2022/04/30 12:42:26;;;;;;;3.40;3.10;;;20.40;53.20;;;;;;5015726;28;20500;-64
2022/04/30 12:44:53;;;;;;;7.00;4.27;;;20.40;53.30;;;;;;5015246;28;20469;-63
2022/04/30 12:47:20;;;;;;;4.13;3.30;;;20.50;53.30;;;;;;5015746;28;20508;-63
2022/04/30 12:49:47;;;;;;;3.83;3.47;;;20.50;52.80;;;;;;5015226;28;20468;-64
2022/04/30 12:52:14;;;;;;;4.00;3.70;;;20.50;52.80;;;;;;5015522;28;20484;-65
2022/04/30 12:54:43;;;;;;;8.40;4.30;;;20.50;52.20;;;;;;5015382;28;20480;-64
2022/04/30 12:57:11;;;;;;;4.00;3.50;;;20.50;52.00;;;;;;5014832;28;20955;-63
2022/04/30 12:59:38;;;;;;;6.07;3.70;;;20.50;51.60;;;;;;5015185;28;20473;-64
2022/04/30 13:02:07;;;;;;;5.70;3.50;;;20.40;51.60;;;;;;5014841;28;21003;-63
2022/04/30 13:04:34;;;;;;;4.40;3.60;;;20.40;51.50;;;;;;5015116;28;20469;-64
2022/04/30 13:07:01;;;;;;;7.53;4.10;;;20.40;51.30;;;;;;5014661;28;20478;-63
2022/04/30 13:14:57;;;;;;;3.40;3.17;;;20.40;50.60;;;;;;5014421;28;20540;-65
2022/04/30 13:17:24;;;;;;;3.43;2.77;;;20.50;50.50;;;;;;5014900;28;20484;-64
2022/04/30 13:19:52;;;;;;;5.27;3.30;;;20.50;50.40;;;;;;5014556;28;20470;-63
2022/04/30 13:22:19;;;;;;;3.43;3.13;;;20.60;50.80;;;;;;5014418;28;20465;-64
2022/04/30 13:24:46;;;;;;;4.43;4.00;;;20.60;51.20;;;;;;5013449;28;20951;-63
2022/04/30 13:27:14;;;;;;;4.30;3.53;;;20.70;51.60;;;;;;5014388;28;20472;-62
2022/04/30 13:29:41;;;;;;;4.67;4.27;;;20.70;51.60;;;;;;5014699;28;20960;-64
2022/04/30 13:32:10;;;;;;;5.73;5.03;;;20.80;51.50;;;;;;5014463;28;20531;-65
2022/04/30 13:34:37;;;;;;;4.93;4.50;;;20.80;51.00;;;;;;5014525;28;20469;-64
2022/04/30 13:37:04;;;;;;;4.27;3.97;;;20.80;50.50;;;;;;5014422;28;20815;-63
2022/04/30 13:39:31;;;;;;;3.90;3.60;;;20.80;50.00;;;;;;5014667;28;20461;-64
2022/04/30 13:41:58;;;;;;;4.90;4.40;;;20.90;49.40;;;;;;5014020;28;20503;-64